createdAt,value
2018-01-15T00:00:04.647Z,1008.51
2018-01-15T00:01:14.419Z,1008.44
2018-01-15T00:02:24.478Z,1008.47
2018-01-15T00:03:34.516Z,1008.43
2018-01-15T00:04:44.315Z,1008.47
2018-01-15T00:05:54.117Z,1008.46
2018-01-15T00:07:03.898Z,1008.48
2018-01-15T00:08:13.950Z,1008.46
2018-01-15T00:09:23.991Z,1008.45
2018-01-15T00:10:34.049Z,1008.45
2018-01-15T00:11:44.099Z,1008.43
2018-01-15T00:12:53.885Z,1008.45
2018-01-15T00:14:04.857Z,1008.44
2018-01-15T00:15:14.913Z,1008.42
2018-01-15T00:16:24.702Z,1008.39
2018-01-15T00:17:34.788Z,1008.43
2018-01-15T00:18:44.830Z,1008.39
2018-01-15T00:19:54.887Z,1008.34
2018-01-15T00:21:04.933Z,1008.36
2018-01-15T00:22:15.020Z,1008.33
2018-01-15T00:23:25.044Z,1008.37
2018-01-15T00:24:34.833Z,1008.31
2018-01-15T00:25:44.880Z,1008.32
2018-01-15T00:26:54.653Z,1008.3
2018-01-15T00:28:04.691Z,1008.31
2018-01-15T00:29:14.761Z,1008.31
2018-01-15T00:30:24.558Z,1008.28
2018-01-15T00:31:34.655Z,1008.28
2018-01-15T00:32:44.452Z,1008.26
2018-01-15T00:33:54.244Z,1008.23
2018-01-15T00:35:04.025Z,1008.26
2018-01-15T00:36:13.805Z,1008.26
2018-01-15T00:37:23.903Z,1008.26
2018-01-15T00:38:33.936Z,1008.22
2018-01-15T00:39:43.974Z,1008.24
2018-01-15T00:40:54.005Z,1008.27
2018-01-15T00:42:04.068Z,1008.28
2018-01-15T00:43:13.850Z,1008.29
2018-01-15T00:44:23.375Z,1008.29
2018-01-15T00:45:33.432Z,1008.27
2018-01-15T00:46:43.208Z,1008.29
2018-01-15T00:47:53.263Z,1008.3
2018-01-15T00:49:03.043Z,1008.3
2018-01-15T00:50:13.097Z,1008.28
2018-01-15T00:51:23.154Z,1008.26
2018-01-15T00:52:33.209Z,1008.26
2018-01-15T00:53:43.833Z,1008.24
2018-01-15T00:54:53.877Z,1008.22
2018-01-15T00:56:03.933Z,1008.23
2018-01-15T00:57:13.709Z,1008.24
2018-01-15T00:58:23.762Z,1008.23
2018-01-15T00:59:33.824Z,1008.2
2018-01-15T01:00:43.621Z,1008.25
2018-01-15T01:01:53.655Z,1008.21
2018-01-15T01:03:03.442Z,1008.24
2018-01-15T01:04:12.964Z,1008.24
2018-01-15T01:05:23.001Z,1008.25
2018-01-15T01:06:33.034Z,1008.21
2018-01-15T01:07:42.820Z,1008.2
2018-01-15T01:08:52.608Z,1008.2
2018-01-15T01:10:02.663Z,1008.21
2018-01-15T01:11:12.723Z,1008.18
2018-01-15T01:12:22.758Z,1008.19
2018-01-15T01:13:32.794Z,1008.15
2018-01-15T01:14:42.061Z,1008.17
2018-01-15T01:15:51.634Z,1008.18
2018-01-15T01:17:01.418Z,1008.17
2018-01-15T01:18:11.256Z,1008.2
2018-01-15T01:19:21.050Z,1008.14
2018-01-15T01:20:31.083Z,1008.18
2018-01-15T01:21:40.876Z,1008.19
2018-01-15T01:22:50.919Z,1008.2
2018-01-15T01:24:00.958Z,1008.11
2018-01-15T01:25:11.098Z,1008.14
2018-01-15T01:26:21.137Z,1008.09
2018-01-15T01:27:30.924Z,1008.07
2018-01-15T01:28:40.955Z,1008.06
2018-01-15T01:29:51.047Z,1008.04
2018-01-15T01:31:00.853Z,1008.05
2018-01-15T01:32:10.645Z,1008.03
2018-01-15T01:33:20.698Z,1007.99
2018-01-15T01:34:30.481Z,1008.02
2018-01-15T01:35:40.590Z,1007.99
2018-01-15T01:36:50.622Z,1008.02
2018-01-15T01:38:00.399Z,1008
2018-01-15T01:39:10.500Z,1007.98
2018-01-15T01:40:20.283Z,1007.97
2018-01-15T01:41:30.061Z,1007.96
2018-01-15T01:42:40.130Z,1008.01
2018-01-15T01:43:50.188Z,1007.96
2018-01-15T01:45:00.232Z,1007.97
2018-01-15T01:46:10.287Z,1007.99
2018-01-15T01:47:20.378Z,1007.97
2018-01-15T01:48:30.427Z,1007.97
2018-01-15T01:49:40.209Z,1007.96
2018-01-15T01:50:50.248Z,1007.96
2018-01-15T01:52:00.347Z,1007.96
2018-01-15T01:53:10.133Z,1007.95
2018-01-15T01:54:20.175Z,1007.95
2018-01-15T01:55:30.213Z,1007.97
2018-01-15T01:56:40.258Z,1007.95
2018-01-15T01:57:50.305Z,1007.97
2018-01-15T01:59:00.421Z,1007.99
2018-01-15T02:00:10.472Z,1007.98
2018-01-15T02:01:20.522Z,1007.92
2018-01-15T02:02:30.557Z,1007.9
2018-01-15T02:03:40.346Z,1007.9
2018-01-15T02:04:50.440Z,1007.87
2018-01-15T02:06:00.547Z,1007.86
2018-01-15T02:07:10.593Z,1007.84
2018-01-15T02:08:20.366Z,1007.85
2018-01-15T02:09:30.427Z,1007.87
2018-01-15T02:10:40.211Z,1007.85
2018-01-15T02:11:50.251Z,1007.84
2018-01-15T02:13:00.290Z,1007.84
2018-01-15T02:14:10.335Z,1007.86
2018-01-15T02:15:20.377Z,1007.89
2018-01-15T02:16:30.413Z,1007.85
2018-01-15T02:17:40.449Z,1007.86
2018-01-15T02:18:50.488Z,1007.83
2018-01-15T02:20:00.530Z,1007.83
2018-01-15T02:21:10.570Z,1007.82
2018-01-15T02:22:21.454Z,1007.81
2018-01-15T02:23:31.498Z,1007.78
2018-01-15T02:24:41.317Z,1007.82
2018-01-15T02:25:51.352Z,1007.81
2018-01-15T02:27:01.134Z,1007.77
2018-01-15T02:28:11.250Z,1007.8
2018-01-15T02:29:21.301Z,1007.74
2018-01-15T02:30:31.345Z,1007.77
2018-01-15T02:31:41.385Z,1007.71
2018-01-15T02:32:51.167Z,1007.74
2018-01-15T02:34:01.327Z,1007.73
2018-01-15T02:35:11.148Z,1007.72
2018-01-15T02:36:21.200Z,1007.72
2018-01-15T02:37:31.235Z,1007.72
2018-01-15T02:38:41.288Z,1007.68
2018-01-15T02:39:51.452Z,1007.77
2018-01-15T02:41:00.971Z,1007.74
2018-01-15T02:42:10.742Z,1007.76
2018-01-15T02:43:20.792Z,1007.7
2018-01-15T02:44:30.830Z,1007.74
2018-01-15T02:45:40.678Z,1007.74
2018-01-15T02:46:50.727Z,1007.73
2018-01-15T02:48:00.517Z,1007.75
2018-01-15T02:49:10.303Z,1007.73
2018-01-15T02:50:20.094Z,1007.75
2018-01-15T02:51:30.194Z,1007.74
2018-01-15T02:52:40.240Z,1007.72
2018-01-15T02:53:50.895Z,1007.75
2018-01-15T02:55:00.946Z,1007.72
2018-01-15T02:56:10.993Z,1007.69
2018-01-15T02:57:20.826Z,1007.68
2018-01-15T02:58:30.855Z,1007.67
2018-01-15T02:59:40.378Z,1007.6
2018-01-15T03:00:50.425Z,1007.6
2018-01-15T03:02:00.508Z,1007.61
2018-01-15T03:03:10.554Z,1007.57
2018-01-15T03:34:24.249Z,1007.55
2018-01-15T03:35:34.337Z,1007.52
2018-01-15T03:36:44.364Z,1007.54
2018-01-15T03:37:54.410Z,1007.52
2018-01-15T03:39:04.448Z,1007.51
2018-01-15T03:40:14.474Z,1007.57
2018-01-15T03:41:24.525Z,1007.54
2018-01-15T03:42:34.605Z,1007.48
2018-01-15T03:43:44.394Z,1007.51
2018-01-15T03:44:55.516Z,1007.48
2018-01-15T03:46:05.432Z,1007.53
2018-01-15T03:47:15.494Z,1007.53
2018-01-15T03:48:25.532Z,1007.51
2018-01-15T03:49:35.577Z,1007.53
2018-01-15T03:50:45.623Z,1007.51
2018-01-15T03:51:55.706Z,1007.47
2018-01-15T03:53:05.747Z,1007.48
2018-01-15T03:54:15.534Z,1007.47
2018-01-15T03:55:25.576Z,1007.49
2018-01-15T03:56:35.612Z,1007.51
2018-01-15T03:57:45.706Z,1007.5
2018-01-15T03:58:55.481Z,1007.5
2018-01-15T04:00:05.283Z,1007.46
2018-01-15T04:01:15.321Z,1007.44
2018-01-15T04:02:25.356Z,1007.45
2018-01-15T04:03:35.438Z,1007.44
2018-01-15T04:04:44.965Z,1007.42
2018-01-15T04:05:54.503Z,1007.38
2018-01-15T04:07:04.594Z,1007.41
2018-01-15T04:08:13.847Z,1007.4
2018-01-15T04:09:23.961Z,1007.38
2018-01-15T04:10:34.000Z,1007.37
2018-01-15T04:11:44.042Z,1007.38
2018-01-15T04:12:53.824Z,1007.38
2018-01-15T04:14:03.859Z,1007.37
2018-01-15T04:15:13.938Z,1007.31
2018-01-15T04:16:24.647Z,1007.27
2018-01-15T04:17:34.695Z,1007.3
2018-01-15T04:18:44.485Z,1007.28
2018-01-15T04:19:54.533Z,1007.32
2018-01-15T04:21:04.629Z,1007.3
2018-01-15T04:22:14.683Z,1007.26
2018-01-15T04:23:24.733Z,1007.26
2018-01-15T04:24:36.279Z,1007.24
2018-01-15T04:25:46.069Z,1007.23
2018-01-15T04:26:56.122Z,1007.22
2018-01-15T04:28:06.166Z,1007.2
2018-01-15T04:29:15.946Z,1007.23
2018-01-15T04:30:25.734Z,1007.22
2018-01-15T04:31:35.520Z,1007.25
2018-01-15T04:32:45.662Z,1007.26
2018-01-15T04:33:55.716Z,1007.34
2018-01-15T04:35:05.495Z,1007.32
2018-01-15T04:36:15.273Z,1007.34
2018-01-15T04:37:25.054Z,1007.4
2018-01-15T04:38:35.145Z,1007.39
2018-01-15T04:39:45.216Z,1007.43
2018-01-15T04:40:55.275Z,1007.45
2018-01-15T04:42:04.811Z,1007.42
2018-01-15T04:43:14.857Z,1007.46
2018-01-15T04:44:24.981Z,1007.48
2018-01-15T04:45:34.771Z,1007.49
2018-01-15T04:46:44.829Z,1007.55
2018-01-15T04:47:54.865Z,1007.51
2018-01-15T04:49:04.912Z,1007.55
2018-01-15T04:50:14.690Z,1007.54
2018-01-15T04:51:24.731Z,1007.54
2018-01-15T04:52:34.768Z,1007.55
2018-01-15T04:53:44.791Z,1007.54
2018-01-15T04:54:54.560Z,1007.53
2018-01-15T04:56:04.137Z,1007.51
2018-01-15T04:57:14.175Z,1007.46
2018-01-15T04:58:23.710Z,1007.45
2018-01-15T04:59:33.752Z,1007.44
2018-01-15T05:00:43.524Z,1007.38
2018-01-15T05:01:53.576Z,1007.38
2018-01-15T05:03:03.115Z,1007.35
2018-01-15T05:04:13.165Z,1007.36
2018-01-15T05:05:23.215Z,1007.34
2018-01-15T05:06:33.973Z,1007.34
2018-01-15T05:07:44.012Z,1007.33
2018-01-15T05:08:54.061Z,1007.34
2018-01-15T05:10:04.095Z,1007.27
2018-01-15T05:11:14.141Z,1007.26
2018-01-15T05:12:23.922Z,1007.28
2018-01-15T05:13:33.715Z,1007.31
2018-01-15T05:14:43.760Z,1007.29
2018-01-15T05:15:53.272Z,1007.32
2018-01-15T05:17:03.334Z,1007.28
2018-01-15T05:18:13.386Z,1007.29
2018-01-15T05:19:23.431Z,1007.3
2018-01-15T05:20:33.216Z,1007.26
2018-01-15T05:21:43.243Z,1007.3
2018-01-15T05:22:53.289Z,1007.33
2018-01-15T05:24:03.334Z,1007.3
2018-01-15T05:25:13.376Z,1007.29
2018-01-15T05:26:23.158Z,1007.33
2018-01-15T05:27:32.936Z,1007.35
2018-01-15T05:28:43.000Z,1007.28
2018-01-15T05:29:53.046Z,1007.29
2018-01-15T05:31:03.142Z,1007.29
2018-01-15T05:32:13.190Z,1007.3
2018-01-15T05:33:23.237Z,1007.26
2018-01-15T05:34:33.036Z,1007.32
2018-01-15T05:35:43.073Z,1007.27
2018-01-15T05:36:53.175Z,1007.23
2018-01-15T05:38:03.207Z,1007.28
2018-01-15T05:39:13.253Z,1007.3
2018-01-15T05:40:23.038Z,1007.3
2018-01-15T05:41:32.830Z,1007.3
2018-01-15T05:42:42.366Z,1007.28
2018-01-15T05:43:52.402Z,1007.3
2018-01-15T05:45:02.242Z,1007.27
2018-01-15T05:46:12.289Z,1007.24
2018-01-15T05:47:22.068Z,1007.26
2018-01-15T05:48:32.155Z,1007.23
2018-01-15T05:49:42.207Z,1007.25
2018-01-15T05:50:52.235Z,1007.32
2018-01-15T05:52:02.269Z,1007.28
2018-01-15T05:53:12.049Z,1007.29
2018-01-15T05:54:22.140Z,1007.29
2018-01-15T05:55:32.183Z,1007.27
2018-01-15T05:56:42.233Z,1007.28
2018-01-15T05:57:52.526Z,1007.24
2018-01-15T05:59:02.322Z,1007.25
2018-01-15T06:00:12.125Z,1007.27
2018-01-15T06:01:22.170Z,1007.28
2018-01-15T06:02:32.213Z,1007.27
2018-01-15T06:03:42.261Z,1007.24
2018-01-15T06:04:52.298Z,1007.29
2018-01-15T06:06:02.404Z,1007.23
2018-01-15T06:07:12.479Z,1007.27
2018-01-15T06:08:22.501Z,1007.23
2018-01-15T06:09:32.532Z,1007.25
2018-01-15T06:10:42.570Z,1007.25
2018-01-15T06:11:52.398Z,1007.23
2018-01-15T06:13:02.463Z,1007.21
2018-01-15T06:14:12.521Z,1007.27
2018-01-15T06:15:22.581Z,1007.27
2018-01-15T06:16:32.099Z,1007.26
2018-01-15T06:17:42.171Z,1007.26
2018-01-15T06:18:51.970Z,1007.3
2018-01-15T06:20:02.014Z,1007.26
2018-01-15T06:21:12.047Z,1007.28
2018-01-15T06:22:22.092Z,1007.23
2018-01-15T06:23:31.871Z,1007.24
2018-01-15T06:24:41.920Z,1007.26
2018-01-15T06:25:52.017Z,1007.25
2018-01-15T06:27:02.050Z,1007.28
2018-01-15T06:28:11.836Z,1007.26
2018-01-15T06:29:21.684Z,1007.28
2018-01-15T06:30:31.721Z,1007.34
2018-01-15T06:31:41.757Z,1007.32
2018-01-15T06:32:51.800Z,1007.3
2018-01-15T06:34:01.869Z,1007.35
2018-01-15T06:35:11.932Z,1007.33
2018-01-15T06:36:21.960Z,1007.37
2018-01-15T06:37:31.998Z,1007.33
2018-01-15T06:38:41.769Z,1007.32
2018-01-15T06:39:51.810Z,1007.38
2018-01-15T06:41:01.881Z,1007.35
2018-01-15T06:42:11.668Z,1007.36
2018-01-15T06:43:21.743Z,1007.37
2018-01-15T06:44:31.776Z,1007.39
2018-01-15T06:45:41.820Z,1007.3
2018-01-15T06:46:51.655Z,1007.36
2018-01-15T06:48:01.702Z,1007.37
2018-01-15T06:49:11.733Z,1007.32
2018-01-15T06:50:21.769Z,1007.34
2018-01-15T06:51:31.543Z,1007.35
2018-01-15T06:52:41.378Z,1007.37
2018-01-15T06:53:51.166Z,1007.35
2018-01-15T06:55:01.246Z,1007.37
2018-01-15T06:56:11.295Z,1007.34
2018-01-15T06:57:21.335Z,1007.41
2018-01-15T06:58:31.429Z,1007.41
2018-01-15T06:59:41.229Z,1007.42
2018-01-15T07:00:51.010Z,1007.36
2018-01-15T07:02:01.045Z,1007.39
2018-01-15T07:03:11.087Z,1007.42
2018-01-15T07:04:21.185Z,1007.34
2018-01-15T07:05:31.245Z,1007.34
2018-01-15T07:06:41.279Z,1007.36
2018-01-15T07:07:51.064Z,1007.39
2018-01-15T07:09:01.114Z,1007.41
2018-01-15T07:10:11.221Z,1007.47
2018-01-15T07:11:20.744Z,1007.5
2018-01-15T07:12:30.790Z,1007.48
2018-01-15T07:13:40.838Z,1007.49
2018-01-15T07:14:50.876Z,1007.51
2018-01-15T07:16:00.971Z,1007.51
2018-01-15T07:17:11.018Z,1007.54
2018-01-15T07:18:21.366Z,1007.53
2018-01-15T07:19:31.408Z,1007.51
2018-01-15T07:20:41.189Z,1007.54
2018-01-15T07:21:51.271Z,1007.54
2018-01-15T07:23:01.317Z,1007.54
2018-01-15T07:24:11.412Z,1007.55
2018-01-15T07:25:21.453Z,1007.57
2018-01-15T07:26:30.981Z,1007.57
2018-01-15T07:27:41.011Z,1007.57
2018-01-15T07:28:51.043Z,1007.53
2018-01-15T07:30:01.076Z,1007.56
2018-01-15T07:31:10.871Z,1007.58
2018-01-15T07:32:20.914Z,1007.56
2018-01-15T07:33:30.731Z,1007.56
2018-01-15T07:34:40.048Z,1007.56
2018-01-15T07:35:49.817Z,1007.58
2018-01-15T07:36:59.586Z,1007.59
2018-01-15T07:38:09.632Z,1007.55
2018-01-15T07:39:20.619Z,1007.55
2018-01-15T07:40:30.657Z,1007.57
2018-01-15T07:41:40.696Z,1007.54
2018-01-15T07:42:50.724Z,1007.55
2018-01-15T07:44:00.519Z,1007.59
2018-01-15T07:45:10.569Z,1007.58
2018-01-15T07:46:20.622Z,1007.65
2018-01-15T07:47:30.451Z,1007.66
2018-01-15T07:48:41.607Z,1007.62
2018-01-15T07:49:51.652Z,1007.64
2018-01-15T07:51:01.691Z,1007.64
2018-01-15T07:52:11.488Z,1007.65
2018-01-15T07:53:21.274Z,1007.63
2018-01-15T07:54:31.328Z,1007.65
2018-01-15T07:55:41.386Z,1007.67
2018-01-15T07:56:51.188Z,1007.67
2018-01-15T07:58:00.962Z,1007.66
2018-01-15T07:59:11.424Z,1007.69
2018-01-15T08:00:21.784Z,1007.69
2018-01-15T08:01:31.857Z,1007.65
2018-01-15T08:02:41.696Z,1007.62
2018-01-15T08:03:51.770Z,1007.65
2018-01-15T08:05:01.816Z,1007.7
2018-01-15T08:06:11.879Z,1007.69
2018-01-15T08:07:21.647Z,1007.69
2018-01-15T08:08:31.677Z,1007.68
2018-01-15T08:09:41.740Z,1007.71
2018-01-15T08:10:52.396Z,1007.68
2018-01-15T08:12:02.450Z,1007.67
2018-01-15T08:13:12.490Z,1007.68
2018-01-15T08:14:22.533Z,1007.64
2018-01-15T08:15:32.487Z,1007.54
2018-01-15T08:16:42.313Z,1007.65
2018-01-15T08:17:52.086Z,1007.54
2018-01-15T08:19:01.899Z,1007.53
2018-01-15T08:20:11.953Z,1007.63
2018-01-15T08:21:22.013Z,1007.54
2018-01-15T08:22:32.070Z,1007.63
2018-01-15T08:23:42.133Z,1007.6
2018-01-15T08:24:52.194Z,1007.64
2018-01-15T08:26:02.245Z,1007.55
2018-01-15T08:27:12.026Z,1007.56
2018-01-15T08:28:22.157Z,1007.5
2018-01-15T08:29:31.947Z,1007.54
2018-01-15T08:30:42.033Z,1007.53
2018-01-15T08:31:52.295Z,1007.52
2018-01-15T08:33:02.087Z,1007.55
2018-01-15T08:34:11.917Z,1007.53
2018-01-15T08:35:21.708Z,1007.53
2018-01-15T08:36:31.747Z,1007.53
2018-01-15T08:37:41.803Z,1007.55
2018-01-15T08:38:51.606Z,1007.52
2018-01-15T08:40:01.670Z,1007.47
2018-01-15T08:41:11.537Z,1007.52
2018-01-15T08:42:21.354Z,1007.52
2018-01-15T08:43:31.403Z,1007.54
2018-01-15T08:44:41.453Z,1007.53
2018-01-15T08:45:51.254Z,1007.51
2018-01-15T08:47:01.417Z,1007.5
2018-01-15T08:48:10.926Z,1007.52
2018-01-15T08:49:20.968Z,1007.51
2018-01-15T08:50:30.998Z,1007.5
2018-01-15T08:51:41.046Z,1007.54
2018-01-15T08:52:51.105Z,1007.5
2018-01-15T08:54:01.177Z,1007.59
2018-01-15T08:55:11.215Z,1007.55
2018-01-15T08:56:21.275Z,1007.54
2018-01-15T08:57:31.330Z,1007.53
2018-01-15T08:58:41.374Z,1007.51
2018-01-15T08:59:51.157Z,1007.5
2018-01-15T09:01:01.251Z,1007.49
2018-01-15T09:02:11.512Z,1007.57
2018-01-15T09:03:21.552Z,1007.44
2018-01-15T09:04:31.594Z,1007.54
2018-01-15T09:05:42.299Z,1007.45
2018-01-15T09:06:52.395Z,1007.49
2018-01-15T09:08:02.194Z,1007.43
2018-01-15T09:09:12.008Z,1007.53
2018-01-15T09:10:22.077Z,1007.42
2018-01-15T09:11:32.103Z,1007.47
2018-01-15T09:12:41.963Z,1007.41
2018-01-15T09:13:52.041Z,1007.43
2018-01-15T09:15:01.880Z,1007.46
2018-01-15T09:16:12.966Z,1007.39
2018-01-15T09:17:23.018Z,1007.57
2018-01-15T09:18:33.124Z,1007.5
2018-01-15T09:19:43.175Z,1007.51
2018-01-15T09:20:52.702Z,1007.52
2018-01-15T09:22:02.492Z,1007.52
2018-01-15T09:23:12.521Z,1007.51
2018-01-15T09:24:22.559Z,1007.5
2018-01-15T09:25:32.596Z,1007.5
2018-01-15T09:26:42.938Z,1007.54
2018-01-15T09:27:52.527Z,1007.51
2018-01-15T09:29:02.570Z,1007.49
2018-01-15T09:30:12.394Z,1007.46
2018-01-15T09:31:22.452Z,1007.51
2018-01-15T09:32:32.492Z,1007.48
2018-01-15T09:33:42.294Z,1007.53
2018-01-15T09:34:52.340Z,1007.51
2018-01-15T09:36:03.495Z,1007.53
2018-01-15T09:37:14.347Z,1007.34
2018-01-15T09:38:24.402Z,1007.41
2018-01-15T09:39:34.470Z,1007.39
2018-01-15T09:40:44.295Z,1007.35
2018-01-15T09:41:54.148Z,1007.34
2018-01-15T09:43:03.950Z,1007.35
2018-01-15T09:44:13.754Z,1007.38
2018-01-15T09:45:23.567Z,1007.35
2018-01-15T09:46:33.394Z,1007.31
2018-01-15T09:47:43.475Z,1007.32
2018-01-15T09:48:53.277Z,1007.34
2018-01-15T09:50:03.336Z,1007.26
2018-01-15T09:51:13.317Z,1007.28
2018-01-15T09:52:23.095Z,1007.25
2018-01-15T09:53:33.139Z,1007.28
2018-01-15T09:54:43.203Z,1007.28
2018-01-15T09:55:53.250Z,1007.23
2018-01-15T09:57:03.301Z,1007.16
2018-01-15T09:58:13.773Z,1007.23
2018-01-15T09:59:23.576Z,1007.22
2018-01-15T10:00:33.691Z,1007.21
2018-01-15T10:01:43.747Z,1007.16
2018-01-15T10:02:54.429Z,1007.21
2018-01-15T10:04:04.482Z,1007.2
2018-01-15T10:05:14.331Z,1007.11
2018-01-15T10:06:25.331Z,1007.07
2018-01-15T10:07:35.134Z,1007.05
2018-01-15T10:08:45.191Z,1007.04
2018-01-15T10:09:55.252Z,1007.05
2018-01-15T10:11:05.368Z,1006.99
2018-01-15T10:12:15.404Z,1006.97
2018-01-15T10:13:25.740Z,1006.95
2018-01-15T10:14:35.274Z,1006.86
2018-01-15T10:15:45.861Z,1006.88
2018-01-15T10:16:55.980Z,1006.92
2018-01-15T10:18:06.054Z,1006.92
2018-01-15T10:19:16.105Z,1006.95
2018-01-15T10:20:26.220Z,1006.95
2018-01-15T10:21:36.283Z,1006.95
2018-01-15T10:22:46.340Z,1006.9
2018-01-15T10:23:56.712Z,1006.91
2018-01-15T10:25:07.565Z,1006.93
2018-01-15T10:26:18.558Z,1006.92
2018-01-15T10:27:28.594Z,1006.88
2018-01-15T10:28:38.770Z,1006.91
2018-01-15T10:29:48.300Z,1006.87
2018-01-15T10:30:58.362Z,1006.95
2018-01-15T10:32:08.412Z,1006.88
2018-01-15T10:33:18.492Z,1006.86
2018-01-15T10:34:28.553Z,1006.81
2018-01-15T10:35:38.354Z,1006.84
2018-01-15T10:36:48.152Z,1006.81
2018-01-15T10:37:58.895Z,1006.8
2018-01-15T10:39:10.141Z,1006.77
2018-01-15T10:40:20.338Z,1006.77
2018-01-15T10:41:30.145Z,1006.71
2018-01-15T10:42:41.254Z,1006.75
2018-01-15T10:43:51.301Z,1006.74
2018-01-15T10:45:01.354Z,1006.69
2018-01-15T10:46:11.458Z,1006.68
2018-01-15T10:47:22.085Z,1006.63
2018-01-15T10:48:31.824Z,1006.66
2018-01-15T10:49:41.907Z,1006.65
2018-01-15T10:50:51.904Z,1006.7
2018-01-15T10:52:01.915Z,1006.58
2018-01-15T10:53:11.910Z,1006.54
2018-01-15T10:54:21.916Z,1006.55
2018-01-15T10:55:32.100Z,1006.51
2018-01-15T10:56:42.104Z,1006.44
2018-01-15T10:57:52.199Z,1006.41
2018-01-15T10:59:02.188Z,1006.45
2018-01-15T11:00:13.099Z,1006.41
2018-01-15T11:01:23.094Z,1006.4
2018-01-15T11:02:33.096Z,1006.4
2018-01-15T11:03:43.192Z,1006.35
2018-01-15T11:04:53.181Z,1006.28
2018-01-15T11:06:03.175Z,1006.34
2018-01-15T11:07:13.174Z,1006.3
2018-01-15T11:08:23.179Z,1006.25
2018-01-15T11:09:33.011Z,1006.26
2018-01-15T11:10:42.993Z,1006.15
2018-01-15T11:11:52.757Z,1006.15
2018-01-15T11:13:02.565Z,1006.13
2018-01-15T11:14:12.295Z,1006.18
2018-01-15T11:15:22.299Z,1006.02
2018-01-15T11:16:32.115Z,1006.09
2018-01-15T11:17:41.623Z,1006.07
2018-01-15T11:18:51.619Z,1006.05
2018-01-15T11:20:01.630Z,1005.97
2018-01-15T11:21:11.882Z,1005.94
2018-01-15T11:22:21.865Z,1005.93
2018-01-15T11:23:31.903Z,1005.87
2018-01-15T11:24:41.960Z,1005.76
2018-01-15T11:25:51.940Z,1005.72
2018-01-15T11:27:01.937Z,1005.74
2018-01-15T11:28:12.777Z,1005.71
2018-01-15T11:29:23.356Z,1005.64
2018-01-15T11:30:33.089Z,1005.65
2018-01-15T11:31:43.069Z,1005.7
2018-01-15T11:32:53.044Z,1005.68
2018-01-15T11:34:03.047Z,1005.58
2018-01-15T11:35:12.773Z,1005.56
2018-01-15T11:36:22.778Z,1005.58
2018-01-15T11:37:32.801Z,1005.55
2018-01-15T11:38:42.802Z,1005.51
2018-01-15T11:39:52.820Z,1005.48
2018-01-15T11:41:02.810Z,1005.49
2018-01-15T11:42:12.796Z,1005.44
2018-01-15T11:43:22.793Z,1005.42
2018-01-15T11:44:32.805Z,1005.37
2018-01-15T11:45:43.078Z,1005.36
2018-01-15T11:46:53.830Z,1005.41
2018-01-15T11:48:03.596Z,1005.27
2018-01-15T11:49:13.625Z,1005.2
2018-01-15T11:50:23.733Z,1005.27
2018-01-15T11:51:33.766Z,1005.24
2018-01-15T11:52:43.790Z,1005.15
2018-01-15T11:53:53.780Z,1005.19
2018-01-15T11:55:03.769Z,1005.19
2018-01-15T11:56:13.780Z,1005.15
2018-01-15T11:57:23.763Z,1005.11
2018-01-15T11:58:33.740Z,1005.12
2018-01-15T11:59:43.466Z,1005.05
2018-01-15T12:00:53.454Z,1005.05
2018-01-15T12:02:03.445Z,1005.07
2018-01-15T12:03:12.923Z,1005.06
2018-01-15T12:04:22.648Z,1004.92
2018-01-15T12:05:32.382Z,1004.92
2018-01-15T12:06:42.143Z,1004.87
2018-01-15T12:07:52.214Z,1004.87
2018-01-15T12:09:01.936Z,1004.87
2018-01-15T12:10:11.942Z,1004.8
2018-01-15T12:11:21.669Z,1004.79
2018-01-15T12:12:31.411Z,1004.75
2018-01-15T12:13:41.184Z,1004.72
2018-01-15T12:14:50.981Z,1004.76
2018-01-15T12:16:00.967Z,1004.78
2018-01-15T12:17:11.025Z,1004.8
2018-01-15T12:18:21.012Z,1004.84
2018-01-15T12:19:31.134Z,1004.78
2018-01-15T12:20:41.209Z,1004.69
2018-01-15T12:21:51.245Z,1004.74
2018-01-15T12:23:01.285Z,1004.78
2018-01-15T12:24:11.306Z,1004.77
2018-01-15T12:25:21.355Z,1004.75
2018-01-15T12:26:31.343Z,1004.74
2018-01-15T12:27:41.345Z,1004.73
2018-01-15T12:28:51.344Z,1004.73
2018-01-15T12:30:01.362Z,1004.8
2018-01-15T12:31:10.897Z,1004.74
2018-01-15T12:32:20.641Z,1004.67
2018-01-15T12:33:30.662Z,1004.6
2018-01-15T12:34:40.664Z,1004.58
2018-01-15T12:35:50.663Z,1004.65
2018-01-15T12:37:00.421Z,1004.58
2018-01-15T12:38:10.176Z,1004.62
2018-01-15T12:39:20.144Z,1004.64
2018-01-15T12:40:30.131Z,1004.56
2018-01-15T12:41:40.121Z,1004.55
2018-01-15T12:42:49.861Z,1004.56
2018-01-15T12:43:59.843Z,1004.51
2018-01-15T12:45:09.666Z,1004.55
2018-01-15T12:46:19.403Z,1004.49
2018-01-15T12:47:29.394Z,1004.48
2018-01-15T12:48:39.217Z,1004.51
2018-01-15T12:49:49.216Z,1004.49
2018-01-15T12:50:59.218Z,1004.48
2018-01-15T12:52:09.213Z,1004.5
2018-01-15T12:53:19.203Z,1004.48
2018-01-15T12:54:28.937Z,1004.5
2018-01-15T12:55:38.940Z,1004.44
2018-01-15T12:56:48.950Z,1004.46
2018-01-15T12:57:58.735Z,1004.36
2018-01-15T12:59:08.796Z,1004.45
2018-01-15T13:00:18.659Z,1004.44
2018-01-15T13:01:28.743Z,1004.4
2018-01-15T13:02:38.565Z,1004.42
2018-01-15T13:03:48.636Z,1004.42
2018-01-15T13:04:58.676Z,1004.37
2018-01-15T13:06:08.797Z,1004.37
2018-01-15T13:07:18.863Z,1004.34
2018-01-15T13:08:28.924Z,1004.36
2018-01-15T13:09:38.992Z,1004.3
2018-01-15T13:10:48.798Z,1004.27
2018-01-15T13:11:58.889Z,1004.35
2018-01-15T13:13:08.683Z,1004.33
2018-01-15T13:14:18.755Z,1004.3
2018-01-15T13:15:28.562Z,1004.3
2018-01-15T13:16:38.376Z,1004.19
2018-01-15T13:17:48.445Z,1004.16
2018-01-15T13:18:58.486Z,1004.12
2018-01-15T13:20:09.045Z,1004.17
2018-01-15T13:21:18.864Z,1004.14
2018-01-15T13:22:28.949Z,1004.18
2018-01-15T13:23:39.085Z,1004.1
2018-01-15T13:24:49.150Z,1004.14
2018-01-15T13:25:58.940Z,1004.12
2018-01-15T13:27:08.994Z,1004.03
2018-01-15T13:28:18.831Z,1004.04
2018-01-15T13:29:28.894Z,1004.03
2018-01-15T13:30:38.959Z,1004.03
2018-01-15T13:31:49.021Z,1004.02
2018-01-15T13:32:58.816Z,1004.03
2018-01-15T13:34:08.868Z,1003.93
2018-01-15T13:35:18.927Z,1003.99
2018-01-15T13:36:28.988Z,1003.97
2018-01-15T13:37:38.772Z,1003.93
2018-01-15T13:38:48.904Z,1004.07
2018-01-15T13:39:58.893Z,1004.01
2018-01-15T13:41:08.753Z,1003.98
2018-01-15T13:42:18.798Z,1004.02
2018-01-15T13:43:29.060Z,1004
2018-01-15T13:44:39.104Z,1003.93
2018-01-15T13:45:49.146Z,1003.97
2018-01-15T13:46:59.256Z,1003.94
2018-01-15T13:48:09.350Z,1003.9
2018-01-15T13:49:19.441Z,1003.96
2018-01-15T13:50:29.498Z,1003.91
2018-01-15T13:51:39.558Z,1003.84
2018-01-15T13:52:49.651Z,1003.76
2018-01-15T13:53:59.459Z,1003.79
2018-01-15T13:55:09.573Z,1003.73
2018-01-15T13:56:19.704Z,1003.76
2018-01-15T13:57:29.488Z,1003.83
2018-01-15T13:58:39.288Z,1003.73
2018-01-15T13:59:49.361Z,1003.66
2018-01-15T14:00:59.165Z,1003.77
2018-01-15T14:02:09.244Z,1003.77
2018-01-15T14:03:20.186Z,1003.63
2018-01-15T14:04:30.255Z,1003.58
2018-01-15T14:05:40.319Z,1003.6
2018-01-15T14:06:50.392Z,1003.49
2018-01-15T14:08:00.474Z,1003.52
2018-01-15T14:09:10.267Z,1003.48
2018-01-15T14:10:20.154Z,1003.51
2018-01-15T14:11:30.221Z,1003.39
2018-01-15T14:12:40.347Z,1003.4
2018-01-15T14:13:50.145Z,1003.39
2018-01-15T14:14:59.963Z,1003.38
2018-01-15T14:16:10.037Z,1003.4
2018-01-15T14:17:20.137Z,1003.42
2018-01-15T14:18:30.196Z,1003.39
2018-01-15T14:19:40.253Z,1003.4
2018-01-15T14:20:51.526Z,1003.31
2018-01-15T14:22:01.337Z,1003.34
2018-01-15T14:23:11.396Z,1003.34
2018-01-15T14:24:21.467Z,1003.31
2018-01-15T14:25:31.550Z,1003.31
2018-01-15T14:26:41.607Z,1003.23
2018-01-15T14:27:51.424Z,1003.2
2018-01-15T14:29:01.196Z,1003.24
2018-01-15T14:30:11.272Z,1003.23
2018-01-15T14:31:21.059Z,1003.29
2018-01-15T14:32:31.124Z,1003.18
2018-01-15T14:33:41.178Z,1003.24
2018-01-15T14:34:51.038Z,1003.32
2018-01-15T14:36:01.097Z,1003.24
2018-01-15T14:37:11.192Z,1003.23
2018-01-15T14:38:21.088Z,1003.24
2018-01-15T14:39:31.241Z,1003.17